Time;durP1;ratioP1;P1;durP2;ratioP2;P2;SDS_P1;SDS_P2;PMS_P1;PMS_P2;Temp;Humidity;BMP_temperature;BMP_pressure;BME280_temperature;BME280_humidity;BME280_pressure;Samples;Min_cycle;Max_cycle;Signal;HPM_P1;HPM_P2
2022/04/01 00:02:04;;;;;;;0.60;0.60;;;3.20;99.90;;;;;;5062331;28;20256;-84
2022/04/01 00:04:30;;;;;;;1.13;1.00;;;3.20;99.90;;;;;;5049564;28;20189;-83
2022/04/01 00:06:56;;;;;;;0.50;0.50;;;3.30;99.90;;;;;;5053167;28;20695;-84
2022/04/01 00:09:23;;;;;;;0.53;0.53;;;3.30;99.90;;;;;;5063337;28;20304;-84
2022/04/01 00:11:49;;;;;;;0.30;0.30;;;3.30;99.90;;;;;;5043775;28;20228;-83
2022/04/01 00:14:15;;;;;;;0.43;0.43;;;3.30;99.90;;;;;;5063001;28;20221;-84
2022/04/01 00:16:40;;;;;;;1.77;0.83;;;3.20;99.90;;;;;;5061984;28;20911;-84
2022/04/01 00:19:06;;;;;;;1.27;1.27;;;3.20;99.90;;;;;;5044764;28;20209;-84
2022/04/01 00:21:33;;;;;;;0.50;0.50;;;3.30;99.90;;;;;;5062676;28;20225;-84
2022/04/01 00:23:58;;;;;;;0.50;0.50;;;3.30;99.90;;;;;;5044440;28;20291;-84
2022/04/01 00:26:24;;;;;;;0.30;0.30;;;3.20;99.90;;;;;;5062392;28;20351;-83
2022/04/01 00:28:50;;;;;;;0.33;0.33;;;3.30;99.90;;;;;;5044698;28;20298;-85
2022/04/01 00:31:15;;;;;;;0.60;0.60;;;3.30;99.90;;;;;;5045844;28;20638;-84
2022/04/01 00:33:41;;;;;;;0.40;0.40;;;3.30;99.90;;;;;;5061828;28;20215;-84
2022/04/01 00:36:07;;;;;;;0.87;0.87;;;3.20;99.90;;;;;;5078817;28;21112;-84
2022/04/01 00:38:33;;;;;;;0.50;0.50;;;3.30;99.90;;;;;;5060543;28;20235;-85
2022/04/01 00:40:59;;;;;;;0.50;0.50;;;3.20;99.90;;;;;;5060812;28;20362;-86
2022/04/01 00:43:30;;;;;;;0.60;0.60;;;3.20;99.90;;;;;;5045081;28;20284;-85
2022/04/01 00:46:00;;;;;;;1.40;1.30;;;3.20;99.90;;;;;;5062012;28;20223;-84
2022/04/01 00:48:26;;;;;;;0.83;0.83;;;3.10;99.90;;;;;;5045798;28;20225;-85
2022/04/01 00:50:54;;;;;;;0.40;0.40;;;3.00;99.90;;;;;;5056681;28;20788;-84
2022/04/01 00:53:22;;;;;;;0.40;0.40;;;3.10;99.90;;;;;;5061968;28;20221;-85
2022/04/01 00:55:49;;;;;;;0.50;0.50;;;3.20;99.90;;;;;;5053390;28;20213;-85
2022/04/01 00:58:16;;;;;;;0.20;0.20;;;3.20;99.90;;;;;;5045880;28;20330;-85
2022/04/01 01:00:43;;;;;;;0.43;0.43;;;3.20;99.90;;;;;;5078809;28;20221;-85
2022/04/01 01:03:09;;;;;;;2.47;1.13;;;3.10;99.90;;;;;;5061945;28;20228;-84
2022/04/01 01:05:35;;;;;;;0.97;0.40;;;3.10;99.90;;;;;;5062035;28;20986;-85
2022/04/01 01:08:05;;;;;;;0.67;0.67;;;3.10;99.90;;;;;;5061675;28;20725;-85
2022/04/01 01:10:31;;;;;;;0.30;0.30;;;3.10;99.90;;;;;;5061396;28;20191;-85
2022/04/01 01:12:57;;;;;;;0.40;0.40;;;3.10;99.90;;;;;;5045649;28;20594;-85
2022/04/01 01:15:25;;;;;;;0.60;0.60;;;3.10;99.90;;;;;;5077708;28;20225;-85
2022/04/01 01:17:51;;;;;;;0.70;0.70;;;3.20;99.90;;;;;;5044529;28;20252;-84
2022/04/01 01:20:17;;;;;;;0.67;0.67;;;3.30;99.90;;;;;;5077486;28;20755;-85
2022/04/01 01:22:47;;;;;;;0.50;0.50;;;3.20;99.90;;;;;;5043518;28;20284;-84
2022/04/01 01:25:13;;;;;;;0.60;0.60;;;3.30;99.90;;;;;;5060381;28;20260;-84
2022/04/01 01:27:40;;;;;;;0.37;0.37;;;3.40;99.90;;;;;;5044497;28;20217;-84
2022/04/01 01:30:07;;;;;;;0.40;0.40;;;3.40;99.90;;;;;;5043080;28;20232;-84
2022/04/01 01:32:34;;;;;;;0.30;0.30;;;3.30;99.90;;;;;;5077541;28;20220;-84
2022/04/01 01:35:02;;;;;;;1.57;0.57;;;3.30;99.90;;;;;;5043463;28;20220;-84
2022/04/01 01:37:28;;;;;;;1.40;0.50;;;3.30;99.90;;;;;;5061751;28;20272;-85
2022/04/01 01:39:54;;;;;;;0.60;0.50;;;3.40;99.90;;;;;;5060920;28;20213;-85
2022/04/01 01:42:20;;;;;;;0.40;0.40;;;3.30;99.90;;;;;;5060900;28;20567;-85
2022/04/01 01:44:46;;;;;;;0.30;0.30;;;3.40;99.90;;;;;;5077390;28;20752;-85
2022/04/01 01:47:12;;;;;;;0.63;0.63;;;3.40;99.90;;;;;;5061011;28;20224;-84
2022/04/01 01:54:42;;;;;;;0.83;0.83;;;3.40;99.90;;;;;;5062169;28;20296;-85
2022/04/01 01:55:09;;;;;;;0.30;0.30;;;3.30;99.90;;;;;;5061997;28;20213;-85
2022/04/01 01:57:35;;;;;;;0.40;0.40;;;3.30;99.90;;;;;;5077495;28;20278;-85
2022/04/01 02:00:10;;;;;;;0.40;0.40;;;3.30;99.90;;;;;;5076700;28;20789;-84
2022/04/01 02:02:37;;;;;;;0.43;0.43;;;3.40;99.90;;;;;;5077213;28;20220;-85
2022/04/01 02:05:05;;;;;;;0.33;0.33;;;3.40;99.90;;;;;;5043543;28;20686;-85
2022/04/01 02:07:31;;;;;;;0.50;0.50;;;3.40;99.90;;;;;;5050999;28;20221;-85
2022/04/01 02:09:56;;;;;;;0.37;0.37;;;3.40;99.90;;;;;;5043947;28;20316;-85
2022/04/01 02:12:22;;;;;;;0.87;0.87;;;3.40;99.90;;;;;;5033379;28;20252;-86
2022/04/01 02:14:48;;;;;;;1.23;0.93;;;3.40;99.90;;;;;;5042634;28;20735;-86
2022/04/01 02:17:14;;;;;;;0.53;0.53;;;3.40;99.90;;;;;;5058708;28;20224;-85
2022/04/01 02:19:40;;;;;;;0.43;0.43;;;3.30;99.90;;;;;;5076291;28;20280;-85
2022/04/01 02:22:07;;;;;;;0.73;0.70;;;3.20;99.90;;;;;;5061921;28;20189;-86
2022/04/01 02:24:33;;;;;;;0.50;0.50;;;3.20;99.90;;;;;;5049451;28;20313;-86
2022/04/01 02:26:59;;;;;;;0.30;0.30;;;3.20;99.90;;;;;;5076883;28;20232;-85
2022/04/01 02:29:25;;;;;;;0.33;0.33;;;3.20;99.90;;;;;;5054791;28;20332;-85
2022/04/01 02:31:52;;;;;;;0.30;0.30;;;3.20;99.90;;;;;;5043225;28;21434;-86
2022/04/01 02:34:19;;;;;;;0.40;0.40;;;3.30;99.90;;;;;;5045397;28;20189;-85
2022/04/01 02:36:45;;;;;;;0.70;0.70;;;3.30;99.90;;;;;;5064926;28;20327;-85
2022/04/01 02:39:11;;;;;;;2.13;1.47;;;3.30;99.90;;;;;;5080117;28;20689;-84
2022/04/01 02:41:37;;;;;;;0.73;0.40;;;3.30;99.90;;;;;;5047524;28;20221;-85
2022/04/01 02:44:09;;;;;;;0.93;0.70;;;3.30;99.90;;;;;;5065320;28;20568;-85
2022/04/01 02:46:39;;;;;;;0.30;0.30;;;3.20;99.90;;;;;;5063936;28;20557;-85
2022/04/01 02:49:07;;;;;;;0.30;0.30;;;3.20;99.90;;;;;;5055549;28;20238;-85
2022/04/01 02:51:37;;;;;;;0.83;0.50;;;3.20;99.90;;;;;;5063830;28;20629;-85
2022/04/01 02:54:04;;;;;;;0.30;0.30;;;3.20;99.90;;;;;;5080104;28;20217;-85
2022/04/01 02:56:32;;;;;;;0.47;0.40;;;3.20;99.90;;;;;;5056844;28;20225;-85
2022/04/01 02:58:59;;;;;;;0.50;0.50;;;3.20;99.90;;;;;;5046053;28;20232;-84
2022/04/01 03:01:25;;;;;;;3.10;2.00;;;3.20;99.90;;;;;;5063341;28;20200;-85
2022/04/01 03:03:51;;;;;;;0.30;0.30;;;3.20;99.90;;;;;;5046234;28;20746;-86
2022/04/01 03:06:16;;;;;;;0.40;0.40;;;3.30;99.90;;;;;;5046820;28;20297;-85
2022/04/01 03:08:43;;;;;;;0.50;0.50;;;3.20;99.90;;;;;;5080058;28;20229;-85
2022/04/01 03:11:09;;;;;;;0.53;0.53;;;3.30;99.90;;;;;;5046898;28;20352;-84
2022/04/01 03:13:35;;;;;;;22.93;1.10;;;3.30;99.90;;;;;;5063072;28;20712;-85
2022/04/01 03:16:02;;;;;;;2.90;0.87;;;3.20;99.90;;;;;;5063364;28;20203;-84
2022/04/01 03:18:28;;;;;;;0.87;0.87;;;3.20;99.90;;;;;;5062482;28;20231;-84
2022/04/01 03:20:53;;;;;;;0.30;0.30;;;3.20;99.90;;;;;;5062758;28;20216;-85
2022/04/01 03:23:19;;;;;;;0.30;0.30;;;3.20;99.90;;;;;;5079266;28;20225;-85
2022/04/01 03:25:45;;;;;;;0.60;0.60;;;3.20;99.90;;;;;;5079329;28;20243;-85
2022/04/01 03:28:13;;;;;;;0.73;0.73;;;3.10;99.90;;;;;;5046084;28;20191;-85
2022/04/01 03:30:38;;;;;;;0.50;0.50;;;3.20;99.90;;;;;;5062519;28;20233;-82
2022/04/01 03:33:05;;;;;;;0.97;0.87;;;3.20;99.90;;;;;;5062651;28;20221;-84
2022/04/01 03:35:32;;;;;;;0.70;0.70;;;3.20;99.90;;;;;;5062330;28;20689;-85
2022/04/01 03:37:59;;;;;;;1.27;1.27;;;3.20;99.90;;;;;;5045534;28;20227;-84
2022/04/01 03:40:28;;;;;;;0.93;0.93;;;3.20;99.90;;;;;;5079760;28;20208;-84
2022/04/01 03:42:55;;;;;;;7.63;0.80;;;3.20;99.90;;;;;;5045289;28;20225;-84
2022/04/01 03:45:22;;;;;;;1.30;1.20;;;3.30;99.90;;;;;;5062115;28;20225;-84
2022/04/01 03:48:12;;;;;;;0.40;0.40;;;3.50;99.90;;;;;;5062223;28;20217;-84
2022/04/01 03:50:39;;;;;;;0.57;0.57;;;3.60;99.90;;;;;;5045441;28;20256;-86
2022/04/01 03:53:08;;;;;;;0.70;0.70;;;3.60;99.90;;;;;;5062740;28;20225;-86
2022/04/01 03:55:42;;;;;;;0.53;0.53;;;3.60;99.90;;;;;;5045413;28;20173;-84
2022/04/01 03:58:09;;;;;;;0.60;0.60;;;3.50;99.90;;;;;;5063337;28;20262;-86
2022/04/01 04:00:36;;;;;;;1.57;0.80;;;3.50;99.90;;;;;;5045571;28;20275;-87
2022/04/01 04:03:07;;;;;;;0.77;0.77;;;3.50;99.90;;;;;;5078563;28;20224;-87
2022/04/01 04:05:38;;;;;;;0.30;0.30;;;3.50;99.90;;;;;;5045123;28;20225;-84
2022/04/01 04:08:05;;;;;;;6.23;1.07;;;3.50;99.90;;;;;;5078148;28;20244;-86
2022/04/01 04:10:34;;;;;;;0.30;0.30;;;3.50;99.90;;;;;;5062999;28;20189;-85
2022/04/01 04:13:03;;;;;;;0.40;0.40;;;3.50;99.90;;;;;;5045080;28;20554;-84
2022/04/01 04:15:40;;;;;;;0.33;0.33;;;3.50;99.90;;;;;;5079012;28;20278;-85
2022/04/01 04:18:12;;;;;;;0.20;0.20;;;3.50;99.90;;;;;;5044907;28;20213;-85
2022/04/01 04:21:04;;;;;;;0.20;0.20;;;3.60;99.90;;;;;;5078563;28;20233;-85
2022/04/01 04:23:38;;;;;;;1.80;1.53;;;3.60;99.90;;;;;;5077573;28;20217;-85
2022/04/01 04:26:15;;;;;;;0.30;0.30;;;3.50;99.90;;;;;;5044366;28;20225;-85
2022/04/01 04:28:47;;;;;;;3.00;1.70;;;3.50;99.90;;;;;;5044150;28;20224;-85
2022/04/01 04:31:14;;;;;;;0.30;0.30;;;3.50;99.90;;;;;;5062923;28;20985;-85
2022/04/01 04:33:47;;;;;;;0.73;0.73;;;3.50;99.90;;;;;;5061967;28;20232;-86
2022/04/01 04:36:19;;;;;;;7.97;0.87;;;3.50;99.90;;;;;;5062187;28;20232;-84
2022/04/01 04:38:46;;;;;;;0.40;0.40;;;3.50;99.90;;;;;;5043895;28;20221;-85
2022/04/01 04:41:18;;;;;;;1.03;1.03;;;3.40;99.90;;;;;;5062227;28;20217;-84
2022/04/01 04:43:44;;;;;;;0.90;0.90;;;3.40;99.90;;;;;;5057165;28;20186;-85
2022/04/01 04:46:11;;;;;;;0.60;0.60;;;3.40;99.90;;;;;;5045304;28;20197;-85
2022/04/01 04:48:40;;;;;;;0.40;0.40;;;3.40;99.90;;;;;;5043521;28;20216;-84
2022/04/01 04:51:07;;;;;;;0.40;0.40;;;3.40;99.90;;;;;;5061625;28;20220;-85
2022/04/01 04:53:34;;;;;;;0.60;0.60;;;3.40;99.90;;;;;;5043952;28;20217;-83
2022/04/01 04:56:02;;;;;;;0.63;0.63;;;3.40;99.90;;;;;;5077007;28;20271;-85
2022/04/01 04:58:39;;;;;;;0.30;0.30;;;3.40;99.90;;;;;;5076873;28;20704;-84
2022/04/01 05:01:34;;;;;;;0.67;0.67;;;3.50;99.90;;;;;;5044151;28;20722;-84
2022/04/01 05:04:15;;;;;;;0.67;0.67;;;3.40;99.90;;;;;;5060108;28;20209;-84
2022/04/01 05:06:51;;;;;;;1.17;1.17;;;3.40;99.90;;;;;;5061547;28;20217;-86
2022/04/01 05:09:29;;;;;;;0.40;0.40;;;3.50;99.90;;;;;;5061297;28;20233;-85
2022/04/01 05:11:56;;;;;;;0.37;0.37;;;3.40;99.90;;;;;;5043823;28;20224;-85
2022/04/01 05:14:31;;;;;;;0.30;0.30;;;3.40;99.90;;;;;;5061339;28;20260;-86
2022/04/01 05:17:04;;;;;;;0.40;0.40;;;3.40;99.90;;;;;;5043107;28;20216;-84
2022/04/01 05:19:31;;;;;;;0.40;0.40;;;3.40;99.90;;;;;;5042972;28;20201;-85
2022/04/01 05:22:09;;;;;;;0.60;0.60;;;3.40;99.90;;;;;;5076593;28;20192;-83
2022/04/01 05:24:40;;;;;;;2.70;0.53;;;3.40;99.90;;;;;;5043104;28;20228;-84
2022/04/01 05:27:31;;;;;;;2.80;2.67;;;3.40;99.90;;;;;;5041675;28;21069;-84
2022/04/01 05:30:16;;;;;;;0.30;0.30;;;3.40;99.90;;;;;;5060188;28;20224;-83
2022/04/01 05:32:59;;;;;;;0.47;0.47;;;3.30;99.90;;;;;;5077076;28;20209;-84
2022/04/01 05:35:31;;;;;;;0.40;0.30;;;3.40;99.90;;;;;;5061514;28;20216;-84
2022/04/01 05:37:59;;;;;;;0.50;0.50;;;3.40;99.90;;;;;;5060911;28;20213;-84
2022/04/01 05:40:27;;;;;;;1.23;0.90;;;3.40;99.90;;;;;;5075795;28;20205;-84
2022/04/01 05:42:56;;;;;;;0.30;0.30;;;3.40;99.90;;;;;;5059781;28;20266;-85
2022/04/01 05:45:25;;;;;;;0.40;0.40;;;3.50;99.90;;;;;;5043670;28;20224;-87
2022/04/01 05:47:51;;;;;;;0.40;0.40;;;3.50;99.90;;;;;;5060459;28;20217;-85
2022/04/01 05:50:18;;;;;;;0.50;0.50;;;3.50;99.90;;;;;;5061115;28;20732;-87
2022/04/01 05:52:49;;;;;;;0.30;0.30;;;3.50;99.90;;;;;;5062014;28;20185;-87
2022/04/01 05:55:16;;;;;;;0.30;0.30;;;3.50;99.90;;;;;;5042335;28;20197;-88
2022/04/01 05:57:42;;;;;;;0.40;0.40;;;3.40;99.90;;;;;;5060653;28;20237;-89
2022/04/01 06:00:12;;;;;;;1.87;1.17;;;3.40;99.90;;;;;;5060090;28;20705;-89
2022/04/01 06:03:02;;;;;;;0.30;0.30;;;3.40;99.90;;;;;;5059671;28;20217;-84
2022/04/01 06:05:31;;;;;;;1.13;1.13;;;3.30;99.90;;;;;;5061473;28;20221;-87
2022/04/01 06:08:16;;;;;;;0.30;0.30;;;3.30;99.90;;;;;;5043725;28;20229;-87
2022/04/01 06:11:01;;;;;;;0.63;0.63;;;3.30;99.90;;;;;;5043460;28;20221;-88
2022/04/01 06:13:43;;;;;;;1.27;1.17;;;3.30;99.90;;;;;;5060017;28;20292;-89
2022/04/01 06:16:25;;;;;;;0.40;0.40;;;3.30;99.90;;;;;;5062060;28;20189;-90
2022/04/01 06:18:53;;;;;;;0.50;0.50;;;3.40;99.90;;;;;;5043621;28;20245;-88
2022/04/01 06:21:24;;;;;;;0.87;0.73;;;3.40;99.90;;;;;;5043392;28;20221;-88
2022/04/01 06:24:08;;;;;;;0.30;0.30;;;3.40;99.90;;;;;;5034444;28;20228;-90
2022/04/01 06:26:55;;;;;;;1.60;1.53;;;3.40;99.90;;;;;;5061234;28;20298;-87
2022/04/01 06:29:32;;;;;;;0.30;0.30;;;3.50;99.90;;;;;;5043410;28;20235;-86
2022/04/01 06:32:03;;;;;;;0.40;0.40;;;3.50;99.90;;;;;;5043828;28;20224;-89
2022/04/01 06:35:02;;;;;;;0.30;0.30;;;3.40;99.90;;;;;;5061694;28;20240;-86
2022/04/01 06:37:29;;;;;;;0.33;0.33;;;3.40;99.90;;;;;;5040547;28;20197;-88
2022/04/01 06:40:10;;;;;;;0.97;0.50;;;3.50;99.90;;;;;;5060795;28;20205;-90
2022/04/01 06:42:40;;;;;;;0.50;0.50;;;3.40;99.90;;;;;;5043049;28;20225;-86
2022/04/01 06:45:08;;;;;;;3.50;2.30;;;3.50;99.90;;;;;;5060680;28;20244;-86
2022/04/01 06:47:35;;;;;;;0.30;0.30;;;3.50;99.90;;;;;;5042591;28;20256;-86
2022/04/01 06:50:02;;;;;;;0.60;0.60;;;3.50;99.90;;;;;;5076799;28;20316;-90
2022/04/01 06:52:28;;;;;;;1.13;1.03;;;3.50;99.90;;;;;;5042691;28;20268;-89
2022/04/01 06:54:54;;;;;;;0.40;0.40;;;3.50;99.90;;;;;;5060844;28;20288;-85
2022/04/01 06:57:21;;;;;;;1.70;0.40;;;3.60;99.90;;;;;;5059734;28;20431;-90
2022/04/01 06:59:47;;;;;;;0.40;0.40;;;3.60;99.90;;;;;;5059493;28;20260;-89
2022/04/01 07:02:13;;;;;;;0.50;0.50;;;3.60;99.90;;;;;;5059288;28;20312;-87
2022/04/01 07:04:38;;;;;;;0.50;0.50;;;3.60;99.90;;;;;;5076722;28;20197;-86
2022/04/01 07:07:04;;;;;;;0.40;0.40;;;3.60;99.90;;;;;;5043723;28;20194;-85
2022/04/01 07:09:30;;;;;;;2.27;1.07;;;3.70;99.90;;;;;;5076694;28;20689;-89
2022/04/01 07:12:01;;;;;;;1.57;1.47;;;3.80;99.90;;;;;;5059410;28;20224;-86
2022/04/01 07:14:27;;;;;;;0.40;0.40;;;3.80;99.90;;;;;;5042171;28;20248;-85
2022/04/01 07:16:55;;;;;;;2.10;1.53;;;3.80;99.90;;;;;;5059769;28;20379;-84
2022/04/01 07:19:20;;;;;;;0.77;0.50;;;3.90;99.90;;;;;;5076093;28;20680;-85
2022/04/01 07:21:46;;;;;;;0.87;0.70;;;3.90;99.90;;;;;;5046060;28;20213;-85
2022/04/01 07:24:12;;;;;;;0.20;0.20;;;3.90;99.90;;;;;;5062403;28;20225;-87
2022/04/01 07:26:38;;;;;;;0.40;0.40;;;3.90;99.90;;;;;;5061993;28;20213;-86
2022/04/01 07:29:04;;;;;;;1.33;0.50;;;3.90;99.90;;;;;;5078312;28;20237;-83
2022/04/01 07:34:21;;;;;;;25.83;2.80;;;3.90;99.90;;;;;;5062456;28;20181;-88
2022/04/01 07:36:48;;;;;;;2.77;1.33;;;3.90;99.90;;;;;;5078301;28;20231;-86
2022/04/01 07:39:15;;;;;;;0.40;0.40;;;3.80;99.90;;;;;;5062236;28;20227;-84
2022/04/01 07:41:41;;;;;;;0.73;0.67;;;3.70;99.90;;;;;;5078858;28;20247;-86
2022/04/01 07:44:07;;;;;;;0.57;0.57;;;3.80;99.90;;;;;;5078183;28;20232;-85
2022/04/01 07:46:34;;;;;;;0.30;0.30;;;3.90;99.90;;;;;;5079851;28;20189;-84
2022/04/01 07:48:59;;;;;;;2.43;0.97;;;3.90;99.90;;;;;;5079463;28;20281;-86
2022/04/01 07:51:25;;;;;;;0.63;0.63;;;3.90;99.90;;;;;;5062305;28;20225;-84
2022/04/01 07:53:51;;;;;;;0.60;0.60;;;3.80;99.90;;;;;;5045353;28;20699;-86
2022/04/01 07:56:17;;;;;;;0.40;0.40;;;3.80;99.90;;;;;;5045094;28;20252;-86
2022/04/01 07:58:42;;;;;;;0.30;0.30;;;3.90;99.90;;;;;;5045301;28;21035;-85
2022/04/01 08:01:08;;;;;;;0.80;0.60;;;4.00;99.90;;;;;;5061980;28;20201;-87
2022/04/01 08:03:34;;;;;;;0.40;0.40;;;4.00;99.90;;;;;;5043941;28;21059;-85
2022/04/01 08:06:00;;;;;;;0.30;0.30;;;4.10;99.90;;;;;;5045346;28;20225;-85
2022/04/01 08:08:25;;;;;;;0.47;0.47;;;4.20;99.90;;;;;;5061009;28;20766;-85
2022/04/01 08:10:52;;;;;;;0.30;0.30;;;4.20;99.90;;;;;;5060927;28;20620;-85
2022/04/01 08:13:18;;;;;;;2.40;2.30;;;4.30;99.90;;;;;;5062714;28;20201;-84
2022/04/01 08:15:45;;;;;;;0.97;0.63;;;4.40;99.90;;;;;;5044119;28;20249;-83
2022/04/01 08:18:11;;;;;;;0.40;0.40;;;4.50;99.90;;;;;;5061901;28;20225;-83
2022/04/01 08:20:37;;;;;;;2.23;1.57;;;4.40;99.90;;;;;;5077752;28;20968;-84
2022/04/01 08:23:03;;;;;;;0.30;0.30;;;4.50;99.90;;;;;;5043601;28;20278;-84
2022/04/01 08:25:28;;;;;;;0.50;0.50;;;4.40;99.90;;;;;;5061704;28;20185;-84
2022/04/01 08:27:54;;;;;;;0.50;0.50;;;4.50;99.90;;;;;;5045589;28;20200;-85
2022/04/01 08:30:21;;;;;;;0.30;0.30;;;4.50;99.90;;;;;;5062534;28;20249;-86
2022/04/01 08:32:46;;;;;;;0.50;0.50;;;4.50;99.90;;;;;;5060137;28;20587;-86
2022/04/01 08:35:12;;;;;;;0.50;0.50;;;4.50;99.90;;;;;;5061225;28;20228;-85
2022/04/01 08:37:39;;;;;;;0.40;0.40;;;4.60;99.90;;;;;;5077687;28;20201;-87
2022/04/01 08:40:05;;;;;;;0.63;0.63;;;4.60;99.90;;;;;;5044438;28;20228;-87
2022/04/01 08:42:32;;;;;;;13.30;0.67;;;4.60;99.90;;;;;;5077756;28;20571;-86
2022/04/01 08:44:58;;;;;;;0.30;0.30;;;4.70;99.90;;;;;;5044621;28;20220;-85
2022/04/01 08:47:24;;;;;;;0.40;0.40;;;4.80;99.90;;;;;;5061972;28;20266;-85
2022/04/01 08:49:52;;;;;;;0.40;0.40;;;4.90;99.90;;;;;;5077077;28;20771;-87
2022/04/01 08:52:18;;;;;;;0.57;0.40;;;5.00;99.90;;;;;;5044833;28;20197;-86
2022/04/01 08:54:44;;;;;;;1.43;0.97;;;4.90;99.90;;;;;;5060240;28;20613;-86
2022/04/01 08:57:10;;;;;;;0.90;0.90;;;4.90;99.90;;;;;;5059699;28;21059;-86
2022/04/01 08:59:37;;;;;;;0.30;0.30;;;4.90;99.90;;;;;;5042746;28;20312;-84
2022/04/01 09:02:08;;;;;;;0.60;0.60;;;4.80;99.90;;;;;;5059717;28;20229;-84
2022/04/01 09:04:34;;;;;;;0.43;0.43;;;4.70;99.90;;;;;;5060361;28;20192;-86
2022/04/01 09:07:11;;;;;;;0.40;0.40;;;4.60;99.90;;;;;;5060835;28;20189;-85
2022/04/01 09:09:37;;;;;;;0.40;0.40;;;4.70;99.90;;;;;;5076226;28;20212;-86
2022/04/01 09:12:12;;;;;;;2.00;1.03;;;4.70;99.90;;;;;;5060366;28;20760;-84
2022/04/01 09:14:40;;;;;;;0.40;0.40;;;4.70;99.90;;;;;;5042429;28;20217;-85
2022/04/01 09:17:07;;;;;;;0.30;0.30;;;4.80;99.90;;;;;;5061041;28;20217;-85
2022/04/01 09:19:35;;;;;;;0.30;0.30;;;4.70;99.90;;;;;;5042118;28;20803;-86
2022/04/01 09:22:21;;;;;;;0.50;0.50;;;4.50;99.90;;;;;;5044773;28;20262;-86
2022/04/01 09:25:02;;;;;;;0.93;0.93;;;4.60;99.90;;;;;;5044488;28;20209;-87
2022/04/01 09:27:52;;;;;;;0.37;0.37;;;4.80;99.90;;;;;;5043346;28;20294;-86
2022/04/01 09:30:38;;;;;;;0.40;0.40;;;4.90;99.90;;;;;;5042934;28;20307;-87
2022/04/01 09:33:05;;;;;;;0.30;0.30;;;4.80;99.90;;;;;;5043362;28;20315;-85
2022/04/01 09:35:32;;;;;;;0.87;0.87;;;4.70;99.90;;;;;;5059669;28;20315;-86
2022/04/01 09:38:10;;;;;;;0.33;0.33;;;4.70;99.90;;;;;;5058972;28;20209;-87
2022/04/01 09:40:35;;;;;;;0.40;0.40;;;4.90;99.90;;;;;;5042315;28;20244;-86
2022/04/01 09:43:01;;;;;;;0.30;0.30;;;4.80;99.90;;;;;;5061175;28;20277;-86
2022/04/01 09:45:30;;;;;;;0.43;0.40;;;4.80;99.90;;;;;;5042492;28;20743;-86
2022/04/01 09:48:01;;;;;;;0.80;0.80;;;5.00;99.90;;;;;;5042346;28;20592;-86
2022/04/01 09:50:38;;;;;;;1.63;1.53;;;5.00;99.90;;;;;;5042441;28;20347;-86
2022/04/01 09:53:11;;;;;;;3.93;1.00;;;5.00;99.90;;;;;;5042770;28;20220;-86
2022/04/01 09:55:39;;;;;;;0.30;0.30;;;4.90;99.90;;;;;;5060535;28;20193;-86
2022/04/01 09:58:06;;;;;;;0.90;0.90;;;5.10;99.90;;;;;;5043160;28;20302;-87
2022/04/01 10:00:33;;;;;;;0.37;0.37;;;5.10;99.90;;;;;;5030473;28;20229;-84
2022/04/01 10:02:59;;;;;;;0.70;0.70;;;5.20;99.90;;;;;;5042688;28;20267;-86
2022/04/01 10:05:26;;;;;;;0.83;0.53;;;5.40;99.90;;;;;;5075620;28;20220;-86
2022/04/01 10:07:57;;;;;;;0.40;0.40;;;5.30;99.90;;;;;;5059527;28;20227;-85
2022/04/01 10:10:24;;;;;;;0.47;0.47;;;5.60;99.90;;;;;;5077979;28;20193;-86
2022/04/01 10:12:53;;;;;;;3.63;0.87;;;5.50;99.90;;;;;;5077527;28;20257;-86
2022/04/01 10:15:19;;;;;;;0.50;0.50;;;5.40;99.90;;;;;;5043334;28;20214;-86
2022/04/01 10:17:46;;;;;;;0.63;0.60;;;5.40;99.90;;;;;;5059589;28;20228;-84
2022/04/01 10:20:13;;;;;;;0.70;0.70;;;5.40;99.90;;;;;;5059349;28;20237;-83
2022/04/01 10:22:41;;;;;;;2.20;0.90;;;5.50;99.90;;;;;;5060087;28;20178;-83
2022/04/01 10:25:20;;;;;;;0.50;0.50;;;5.50;99.90;;;;;;5043579;28;20279;-85
2022/04/01 10:27:51;;;;;;;1.00;0.93;;;5.40;99.90;;;;;;5060946;28;20235;-84
2022/04/01 10:30:20;;;;;;;0.43;0.43;;;5.60;99.90;;;;;;5043039;28;20229;-84
2022/04/01 10:32:47;;;;;;;0.40;0.40;;;5.60;99.90;;;;;;5042340;28;20678;-85
2022/04/01 10:35:32;;;;;;;0.50;0.50;;;5.80;99.90;;;;;;5059411;28;20256;-83
2022/04/01 10:38:07;;;;;;;0.60;0.60;;;5.70;99.90;;;;;;5059692;28;20266;-83
2022/04/01 10:40:40;;;;;;;0.53;0.53;;;5.70;99.90;;;;;;5041832;28;20327;-81
2022/04/01 10:43:15;;;;;;;2.43;0.93;;;5.90;99.90;;;;;;5061160;28;20256;-84
2022/04/01 10:46:05;;;;;;;0.93;0.93;;;5.70;99.90;;;;;;5041876;28;20224;-80
2022/04/01 10:51:37;;;;;;;0.30;0.30;;;6.00;99.90;;;;;;5059839;28;20304;-80
2022/04/01 10:54:10;;;;;;;0.80;0.80;;;5.90;99.90;;;;;;5042983;28;20787;-82
2022/04/01 10:56:37;;;;;;;0.40;0.40;;;5.80;99.90;;;;;;5063516;28;20221;-81
2022/04/01 10:59:02;;;;;;;0.40;0.40;;;6.00;99.90;;;;;;5064733;28;20273;-80
2022/04/01 11:01:28;;;;;;;0.33;0.33;;;5.80;99.90;;;;;;5046530;28;20198;-80
2022/04/01 11:04:20;;;;;;;0.40;0.40;;;5.70;99.90;;;;;;5064875;28;20204;-80
2022/04/01 11:07:03;;;;;;;1.37;1.27;;;5.70;99.90;;;;;;5042381;28;20225;-81
2022/04/01 11:10:00;;;;;;;0.30;0.30;;;5.80;99.90;;;;;;5064670;28;20232;-82
2022/04/01 11:12:32;;;;;;;0.63;0.53;;;5.90;99.90;;;;;;5045616;28;20213;-82
2022/04/01 11:15:09;;;;;;;0.40;0.40;;;5.90;99.90;;;;;;5080134;28;20332;-82
2022/04/01 11:17:35;;;;;;;1.03;1.03;;;5.80;99.90;;;;;;5063960;28;20220;-83
2022/04/01 11:20:05;;;;;;;0.20;0.20;;;5.80;99.90;;;;;;5046630;28;20233;-83
2022/04/01 11:23:00;;;;;;;0.37;0.37;;;5.90;99.90;;;;;;5046787;28;20268;-83
2022/04/01 11:25:31;;;;;;;0.57;0.57;;;5.90;99.90;;;;;;5046458;28;20565;-82
2022/04/01 11:28:08;;;;;;;0.40;0.40;;;6.00;99.90;;;;;;5046147;28;20670;-82
2022/04/01 11:30:40;;;;;;;0.50;0.50;;;5.90;99.90;;;;;;5063375;28;20224;-83
2022/04/01 11:33:11;;;;;;;0.30;0.30;;;5.80;99.90;;;;;;5063828;28;20225;-83
2022/04/01 11:35:39;;;;;;;0.30;0.30;;;5.90;99.90;;;;;;5046450;28;20307;-82
2022/04/01 11:38:06;;;;;;;0.30;0.30;;;5.80;99.90;;;;;;5045214;28;20442;-81
2022/04/01 11:40:34;;;;;;;0.70;0.70;;;6.00;99.90;;;;;;5045841;28;20221;-82
2022/04/01 11:43:09;;;;;;;0.40;0.40;;;6.00;99.90;;;;;;5063224;28;20208;-83
2022/04/01 11:45:40;;;;;;;0.40;0.40;;;5.90;99.90;;;;;;5064095;28;20216;-83
2022/04/01 11:48:35;;;;;;;1.20;1.20;;;5.70;99.90;;;;;;5045654;28;20228;-81
2022/04/01 11:51:08;;;;;;;0.50;0.50;;;5.80;99.90;;;;;;5045713;28;20221;-82
2022/04/01 11:53:36;;;;;;;0.50;0.50;;;5.90;99.90;;;;;;5063648;28;20217;-83
2022/04/01 11:56:05;;;;;;;0.30;0.30;;;6.00;99.90;;;;;;5063979;28;20225;-82
2022/04/01 11:58:48;;;;;;;1.33;1.33;;;6.00;99.90;;;;;;5045021;28;20240;-82
2022/04/01 12:01:29;;;;;;;0.60;0.50;;;6.00;99.90;;;;;;5063600;28;20271;-81
2022/04/01 12:04:11;;;;;;;0.73;0.73;;;6.10;99.90;;;;;;5063831;28;20458;-81
2022/04/01 12:09:31;;;;;;;0.33;0.33;;;5.80;99.90;;;;;;5063425;28;20227;-81
2022/04/01 12:12:01;;;;;;;0.73;0.73;;;5.80;99.90;;;;;;5045972;28;20277;-82
2022/04/01 12:14:28;;;;;;;0.30;0.30;;;5.90;99.90;;;;;;5061475;28;20218;-81
2022/04/01 12:16:54;;;;;;;0.47;0.47;;;6.00;99.90;;;;;;5061841;28;20299;-82
2022/04/01 12:19:21;;;;;;;2.87;0.80;;;6.20;99.90;;;;;;5062391;28;20213;-82
2022/04/01 12:21:55;;;;;;;0.40;0.40;;;6.30;99.90;;;;;;5079269;28;20209;-82
2022/04/01 12:24:21;;;;;;;0.67;0.67;;;6.40;99.90;;;;;;5044741;28;20228;-81
2022/04/01 12:26:48;;;;;;;0.37;0.37;;;6.20;99.90;;;;;;5045680;28;20218;-81
2022/04/01 12:29:19;;;;;;;0.97;0.80;;;6.00;99.90;;;;;;5078203;28;20233;-82
2022/04/01 12:31:53;;;;;;;0.40;0.40;;;6.10;99.90;;;;;;5063391;28;20190;-82
2022/04/01 12:34:18;;;;;;;0.83;0.77;;;6.20;99.90;;;;;;5063501;28;20196;-81
2022/04/01 12:36:51;;;;;;;0.80;0.80;;;6.20;99.90;;;;;;5062877;28;20241;-82
2022/04/01 12:39:17;;;;;;;0.40;0.40;;;6.10;99.90;;;;;;5044039;28;20282;-81
2022/04/01 12:42:15;;;;;;;0.57;0.57;;;6.10;99.90;;;;;;5078510;28;20628;-82
2022/04/01 12:44:41;;;;;;;0.37;0.37;;;6.30;99.90;;;;;;5044541;28;20229;-81
2022/04/01 12:47:08;;;;;;;0.40;0.40;;;6.10;99.90;;;;;;5061970;28;20625;-82
2022/04/01 12:49:35;;;;;;;0.30;0.30;;;6.00;99.90;;;;;;5062453;28;20192;-83
2022/04/01 12:52:15;;;;;;;0.40;0.40;;;6.40;99.90;;;;;;5063182;28;20587;-83
2022/04/01 12:54:48;;;;;;;0.53;0.50;;;6.20;99.90;;;;;;5044258;28;20629;-81
2022/04/01 12:57:14;;;;;;;0.40;0.40;;;6.20;99.90;;;;;;5063001;28;20220;-82
2022/04/01 12:59:45;;;;;;;0.47;0.47;;;6.40;99.90;;;;;;5061922;28;20585;-83
2022/04/01 13:02:19;;;;;;;0.37;0.37;;;6.30;99.90;;;;;;5062839;28;20228;-82
2022/04/01 13:04:48;;;;;;;0.33;0.33;;;6.40;99.90;;;;;;5060819;28;20705;-82
2022/04/01 13:07:26;;;;;;;0.33;0.33;;;6.20;99.90;;;;;;5063233;28;20196;-85
2022/04/01 13:09:56;;;;;;;0.93;0.67;;;6.10;99.90;;;;;;5062735;28;20216;-82
2022/04/01 13:12:35;;;;;;;5.93;0.50;;;6.20;99.90;;;;;;5062634;28;20221;-82
2022/04/01 13:15:09;;;;;;;0.40;0.40;;;6.20;99.90;;;;;;5062608;28;20209;-86
2022/04/01 13:17:46;;;;;;;0.30;0.30;;;6.20;99.90;;;;;;5077395;28;20307;-83
2022/04/01 13:20:14;;;;;;;0.50;0.50;;;6.30;99.90;;;;;;5061755;28;20614;-83
2022/04/01 13:22:41;;;;;;;0.50;0.50;;;6.40;99.90;;;;;;5062401;28;20215;-81
2022/04/01 13:25:08;;;;;;;0.30;0.30;;;6.80;99.90;;;;;;5044724;28;20193;-83